Time;durP1;ratioP1;P1;durP2;ratioP2;P2;SDS_P1;SDS_P2;PMS_P1;PMS_P2;Temp;Humidity;BMP_temperature;BMP_pressure;BME280_temperature;BME280_humidity;BME280_pressure;Samples;Min_cycle;Max_cycle;Signal;HPM_P1;HPM_P2
2023/06/25 00:00:33;;;;;;;6.18;2.63;;;;;;;17.43;82.21;102024.16;10485506;28;20395;-76
2023/06/25 00:05:35;;;;;;;8.27;3.10;;;;;;;17.29;82.44;102018.75;10485249;28;20063;-76
2023/06/25 00:10:37;;;;;;;8.23;3.83;;;;;;;17.25;82.88;102017.84;10485404;28;20770;-76
2023/06/25 00:15:39;;;;;;;6.05;2.80;;;;;;;17.17;82.95;102018.66;10483962;28;20048;-76
2023/06/25 00:20:40;;;;;;;8.60;3.45;;;;;;;17.13;83.32;102013.34;10485878;28;20166;-76
2023/06/25 00:25:42;;;;;;;8.45;3.97;;;;;;;17.10;83.48;102013.31;10467052;28;20053;-76
2023/06/25 00:30:44;;;;;;;5.28;2.65;;;;;;;17.01;83.70;102013.22;10479316;28;20060;-76
2023/06/25 00:35:51;;;;;;;7.00;3.30;;;;;;;17.00;83.71;102015.84;10449484;28;20644;-76
2023/06/25 00:40:53;;;;;;;8.50;3.58;;;;;;;16.95;83.87;102015.81;10476293;28;20136;-76
2023/06/25 00:45:55;;;;;;;6.10;3.03;;;;;;;16.95;84.23;102021.09;10483673;28;20049;-77
2023/06/25 00:51:01;;;;;;;8.55;3.00;;;;;;;16.84;84.34;102009.47;10487251;28;20059;-76
2023/06/25 00:56:03;;;;;;;14.60;4.13;;;;;;;16.73;84.55;102006.72;10482314;28;20409;-77
2023/06/25 01:01:15;;;;;;;7.07;3.00;;;;;;;16.72;84.73;101999.66;10466724;28;20060;-76
2023/06/25 01:06:33;;;;;;;5.10;2.60;;;;;;;16.71;84.97;102004.06;10466162;28;20051;-76
2023/06/25 01:11:37;;;;;;;6.00;2.45;;;;;;;16.58;85.24;101996.84;10467703;28;20548;-77
2023/06/25 01:16:39;;;;;;;7.32;2.78;;;;;;;16.52;85.20;102000.31;10485842;28;20121;-76
2023/06/25 01:21:41;;;;;;;7.05;3.28;;;;;;;16.50;85.49;101988.84;10487776;28;20598;-77
2023/06/25 01:26:44;;;;;;;7.13;3.25;;;;;;;16.53;85.52;101993.25;10485581;28;20049;-77
2023/06/25 01:31:45;;;;;;;7.70;3.45;;;;;;;16.52;85.69;101997.66;10449464;28;20044;-77
2023/06/25 01:36:49;;;;;;;7.35;3.08;;;;;;;16.53;85.63;101987.97;10484611;28;20047;-76
2023/06/25 01:41:51;;;;;;;7.43;2.85;;;;;;;16.46;85.89;101980.84;10483396;28;20052;-76
2023/06/25 01:46:54;;;;;;;7.95;3.35;;;;;;;16.41;85.92;101976.38;10482556;28;20094;-77
2023/06/25 01:51:55;;;;;;;7.28;3.33;;;;;;;16.32;86.16;101967.44;10445844;28;20075;-77
2023/06/25 01:56:59;;;;;;;6.55;3.15;;;;;;;16.30;85.99;101966.56;10488856;28;20094;-77
2023/06/25 02:02:01;;;;;;;7.70;3.35;;;;;;;16.28;86.38;101963.91;10474592;28;20137;-77
2023/06/25 02:07:04;;;;;;;9.18;4.05;;;;;;;16.26;86.42;101955.94;10492256;28;20497;-77
2023/06/25 02:12:07;;;;;;;9.25;3.72;;;;;;;16.25;86.60;101961.22;10474772;28;20507;-77
2023/06/25 02:17:09;;;;;;;10.65;4.50;;;;;;;16.23;86.50;101952.41;10474467;28;20155;-76
2023/06/25 02:22:11;;;;;;;8.73;3.72;;;;;;;16.15;86.67;101946.13;10476886;28;20048;-77
2023/06/25 02:27:13;;;;;;;8.25;3.30;;;;;;;16.12;86.92;101932.88;10492782;28;20040;-76
2023/06/25 02:32:14;;;;;;;9.93;4.47;;;;;;;16.11;87.02;101942.56;10474612;28;20547;-77
2023/06/25 02:37:16;;;;;;;8.23;3.70;;;;;;;16.04;87.03;101932.78;10492951;28;20063;-76
2023/06/25 02:42:18;;;;;;;7.68;3.55;;;;;;;16.03;87.25;101937.19;10474546;28;20151;-76
2023/06/25 02:47:19;;;;;;;15.57;4.53;;;;;;;16.00;87.17;101931.84;10508148;28;20469;-76
2023/06/25 02:52:21;;;;;;;11.02;4.50;;;;;;;15.99;87.36;101935.34;10477526;28;20132;-76
2023/06/25 02:57:23;;;;;;;12.50;6.00;;;;;;;16.00;87.42;101921.28;10458007;28;20101;-76
2023/06/25 03:02:25;;;;;;;11.07;5.03;;;;;;;16.01;87.56;101930.97;10474694;28;20102;-76
2023/06/25 03:07:27;;;;;;;15.25;5.07;;;;;;;16.00;87.68;101915.09;10474237;28;20092;-76
2023/06/25 03:12:30;;;;;;;11.98;5.80;;;;;;;15.99;87.74;101911.59;10475258;28;20052;-77
2023/06/25 03:17:32;;;;;;;16.45;8.13;;;;;;;15.99;87.84;101906.31;10475298;28;20049;-77
2023/06/25 03:22:35;;;;;;;18.38;8.93;;;;;;;16.00;88.04;101902.81;10478344;28;20198;-77
2023/06/25 03:27:37;;;;;;;18.30;9.63;;;;;;;16.01;88.36;101899.28;10475443;28;20041;-77
2023/06/25 03:32:39;;;;;;;14.40;7.72;;;;;;;16.01;88.63;101901.91;10474993;28;20044;-77
2023/06/25 03:37:42;;;;;;;14.38;7.10;;;;;;;16.03;88.78;101894.91;10475763;28;20059;-76
2023/06/25 03:42:43;;;;;;;20.40;8.02;;;;;;;16.05;89.01;101898.44;10473153;28;20151;-77
2023/06/25 03:47:45;;;;;;;19.52;7.70;;;;;;;16.06;89.24;101896.69;10458505;28;20093;-77
2023/06/25 03:52:48;;;;;;;18.17;8.10;;;;;;;16.09;89.44;101891.44;10476919;28;20068;-77
2023/06/25 03:57:50;;;;;;;17.13;9.38;;;;;;;16.15;89.47;101886.22;10471290;28;20048;-77
2023/06/25 04:02:52;;;;;;;18.02;9.40;;;;;;;16.22;89.72;101892.47;10474900;28;20067;-76
2023/06/25 04:07:54;;;;;;;17.65;8.70;;;;;;;16.29;89.86;101881.09;10474084;28;20044;-76
2023/06/25 04:12:56;;;;;;;17.90;8.85;;;;;;;16.39;90.01;101880.34;10470961;28;20052;-76
2023/06/25 04:17:58;;;;;;;17.45;9.32;;;;;;;16.47;90.10;101891.00;10474230;28;20123;-75
2023/06/25 04:23:00;;;;;;;14.77;8.10;;;;;;;16.59;90.37;101892.88;10477694;28;20044;-76
2023/06/25 04:28:03;;;;;;;16.40;7.82;;;;;;;16.73;90.09;101891.22;10475052;28;20068;-76
2023/06/25 04:33:06;;;;;;;23.17;9.88;;;;;;;16.93;90.08;101882.63;10468206;28;20049;-76
2023/06/25 04:38:08;;;;;;;19.80;8.57;;;;;;;17.09;89.89;101896.88;10474971;28;20115;-76
2023/06/25 04:43:10;;;;;;;12.68;6.88;;;;;;;17.10;89.72;101891.59;10475334;28;20060;-76
2023/06/25 04:48:12;;;;;;;18.13;8.18;;;;;;;17.16;89.28;101889.84;10475121;28;20416;-76
2023/06/25 04:53:13;;;;;;;15.52;8.57;;;;;;;17.24;88.79;101889.03;10477597;28;20068;-77
2023/06/25 04:58:15;;;;;;;13.32;6.90;;;;;;;17.38;88.54;101894.41;10493302;28;20066;-77
2023/06/25 05:03:17;;;;;;;17.58;7.43;;;;;;;17.45;88.23;101890.94;10492479;28;20101;-77
2023/06/25 05:08:18;;;;;;;16.10;6.75;;;;;;;17.55;87.61;101885.69;10493355;28;20048;-77
2023/06/25 05:13:20;;;;;;;15.27;7.28;;;;;;;17.67;87.11;101883.13;10493465;28;20486;-77
2023/06/25 05:18:21;;;;;;;17.38;6.65;;;;;;;17.78;86.70;101889.34;10493337;28;20059;-77
2023/06/25 05:23:24;;;;;;;14.13;6.38;;;;;;;17.92;86.22;101888.56;10478823;28;20123;-77
2023/06/25 05:46:27;;;;;;;12.80;5.85;;;;;;;-147.53;100.00;57128.34;10491315;28;21301;-77
2023/06/25 05:51:29;;;;;;;14.75;5.80;;;;;;;-147.53;100.00;57128.34;10505154;28;20052;-76
2023/06/25 05:56:30;;;;;;;9.88;4.43;;;;;;;-147.53;100.00;57128.34;10504494;28;20135;-80
2023/06/25 06:01:32;;;;;;;14.82;5.68;;;;;;;18.29;84.81;101894.00;10507126;28;20045;-79
2023/06/25 06:06:34;;;;;;;8.02;3.50;;;;;;;19.91;80.05;101867.38;10502346;28;20051;-78
2023/06/25 06:11:35;;;;;;;9.80;4.07;;;;;;;20.00;79.29;101869.97;10467451;28;20048;-78
2023/06/25 06:16:37;;;;;;;12.25;3.90;;;;;;;20.19;78.98;101869.88;10462252;28;20041;-77
2023/06/25 06:21:38;;;;;;;8.63;3.40;;;;;;;20.37;78.18;101863.56;10486984;28;20097;-77
2023/06/25 06:26:40;;;;;;;10.50;4.80;;;;;;;20.73;77.14;101873.09;10468853;28;20456;-78
2023/06/25 06:31:42;;;;;;;9.27;3.95;;;;;;;21.13;76.49;101877.19;10469966;28;20060;-77
2023/06/25 06:36:44;;;;;;;8.68;4.10;;;;;;;21.56;75.17;101860.78;10489476;28;20148;-77
2023/06/25 06:41:46;;;;;;;8.00;3.95;;;;;;;21.99;74.15;101860.25;10488377;28;20135;-77
2023/06/25 06:46:47;;;;;;;7.88;3.28;;;;;;;22.33;72.99;101857.09;10500179;28;20109;-78
2023/06/25 06:51:49;;;;;;;13.30;4.65;;;;;;;22.69;71.83;101865.44;10493824;28;20052;-78
2023/06/25 06:56:50;;;;;;;7.72;3.53;;;;;;;23.16;70.73;101851.31;10478333;28;20044;-78
2023/06/25 07:01:52;;;;;;;9.10;3.58;;;;;;;23.64;69.56;101856.59;10473440;28;20175;-78
2023/06/25 07:06:54;;;;;;;9.82;4.07;;;;;;;24.13;68.41;101850.22;10477159;28;20054;-78
2023/06/25 07:11:55;;;;;;;8.57;3.80;;;;;;;24.53;66.93;101846.63;10461729;28;20063;-80
2023/06/25 07:16:57;;;;;;;8.50;4.80;;;;;;;24.67;66.16;101846.31;10482938;28;20139;-80
2023/06/25 07:22:01;;;;;;;10.32;4.57;;;;;;;25.10;65.44;101846.09;10458824;28;20794;-79
2023/06/25 07:27:03;;;;;;;6.68;3.72;;;;;;;25.46;63.92;101838.88;10468535;28;20033;-78
2023/06/25 07:32:05;;;;;;;9.30;3.58;;;;;;;25.40;62.98;101833.66;10474364;28;20044;-79
2023/06/25 07:37:09;;;;;;;7.57;4.00;;;;;;;25.73;62.26;101828.25;10494218;28;20049;-78
2023/06/25 07:42:10;;;;;;;6.15;3.50;;;;;;;25.88;62.60;101827.81;10498030;28;20060;-78
2023/06/25 07:47:12;;;;;;;6.40;3.28;;;;;;;26.26;61.42;101831.09;10495576;28;20096;-78
2023/06/25 07:52:13;;;;;;;10.07;4.20;;;;;;;26.70;61.03;101824.34;10486653;28;20048;-78
2023/06/25 07:57:16;;;;;;;7.50;3.70;;;;;;;27.05;58.97;101830.28;10498075;28;20586;-78
2023/06/25 08:02:18;;;;;;;7.13;3.40;;;;;;;27.03;59.16;101833.03;10479417;28;20046;-80
2023/06/25 08:07:20;;;;;;;5.93;3.08;;;;;;;27.29;58.21;101817.75;10463064;28;20049;-78
2023/06/25 08:12:22;;;;;;;7.60;3.65;;;;;;;27.41;57.94;101825.41;10495729;28;20581;-80
2023/06/25 08:17:24;;;;;;;5.95;2.97;;;;;;;27.78;57.69;101817.75;10481682;28;20108;-79
2023/06/25 08:22:25;;;;;;;6.20;2.75;;;;;;;28.25;57.28;101819.53;10483655;28;20644;-77
2023/06/25 08:27:27;;;;;;;9.75;3.28;;;;;;;28.67;55.85;101824.06;10474348;28;20474;-77
2023/06/25 08:32:29;;;;;;;6.15;2.83;;;;;;;28.69;55.27;101824.88;10469191;28;20052;-77
2023/06/25 08:37:30;;;;;;;6.05;3.28;;;;;;;28.55;54.07;101817.34;10493861;28;20044;-76
2023/06/25 08:42:32;;;;;;;6.57;3.35;;;;;;;28.36;53.94;101804.69;10453584;28;20138;-76
2023/06/25 08:47:38;;;;;;;7.03;3.30;;;;;;;28.20;54.29;101812.50;10451179;28;20041;-76
2023/06/25 08:52:40;;;;;;;8.75;3.00;;;;;;;29.05;53.31;101811.63;10455673;28;20410;-77
2023/06/25 08:57:41;;;;;;;8.50;3.05;;;;;;;29.39;52.49;101804.72;10470938;28;20155;-77
2023/06/25 09:02:43;;;;;;;6.90;3.25;;;;;;;29.55;50.92;101804.03;10469496;28;20076;-76
2023/06/25 09:07:46;;;;;;;5.07;2.50;;;;;;;29.57;51.26;101807.50;10457231;28;20068;-78
2023/06/25 09:12:49;;;;;;;6.68;2.63;;;;;;;29.93;49.78;101804.03;10505213;28;20039;-75
2023/06/25 09:17:57;;;;;;;4.85;2.22;;;;;;;30.03;48.38;101805.34;10474476;28;20068;-80
2023/06/25 09:23:02;;;;;;;6.45;2.78;;;;;;;30.15;47.79;101803.88;10472433;28;20047;-78
2023/06/25 09:28:04;;;;;;;5.93;2.70;;;;;;;30.09;46.82;101805.03;10486122;28;20148;-80
2023/06/25 09:33:08;;;;;;;5.60;2.88;;;;;;;29.43;47.08;101795.53;10464900;28;20058;-79
2023/06/25 09:38:10;;;;;;;6.13;2.90;;;;;;;29.67;46.61;101787.25;10476838;28;20068;-79
2023/06/25 09:43:14;;;;;;;6.07;3.25;;;;;;;29.09;47.30;101785.41;10491790;28;20048;-81
2023/06/25 09:48:22;;;;;;;4.78;2.58;;;;;;;29.57;46.73;101776.00;10510548;28;20059;-80
2023/06/25 09:53:27;;;;;;;4.22;1.90;;;;;;;29.80;45.77;101779.44;10475698;28;20040;-81
2023/06/25 09:58:29;;;;;;;6.03;3.00;;;;;;;29.75;44.06;101779.66;10492917;28;20048;-81
2023/06/25 10:03:31;;;;;;;5.90;2.83;;;;;;;29.01;46.15;101766.88;10486750;28;20127;-78
2023/06/25 10:08:33;;;;;;;4.25;2.22;;;;;;;29.60;46.16;101765.06;10501340;28;20032;-78
2023/06/25 10:13:40;;;;;;;5.35;2.80;;;;;;;30.10;45.93;101750.09;10502775;28;20048;-78
2023/06/25 10:18:42;;;;;;;5.63;2.50;;;;;;;30.26;45.90;101752.88;10492749;28;20067;-77
2023/06/25 10:23:53;;;;;;;8.10;2.45;;;;;;;29.65;44.88;101743.28;10495436;28;20048;-76
2023/06/25 10:28:58;;;;;;;5.43;2.25;;;;;;;29.66;43.87;101742.31;10490581;28;20068;-80
2023/06/25 10:34:07;;;;;;;4.75;2.42;;;;;;;29.74;44.67;101740.13;10491104;28;20049;-79
2023/06/25 10:39:09;;;;;;;4.97;2.40;;;;;;;29.74;44.35;101741.94;10495170;28;20044;-83
2023/06/25 10:44:10;;;;;;;4.90;2.22;;;;;;;30.07;43.68;101735.84;10490636;28;20032;-79
2023/06/25 10:49:19;;;;;;;3.45;1.95;;;;;;;30.64;42.36;101730.25;10486982;28;20128;-77
2023/06/25 10:54:21;;;;;;;6.82;3.20;;;;;;;30.28;41.54;101739.28;10492782;28;20706;-77
2023/06/25 10:59:23;;;;;;;4.00;2.20;;;;;;;30.39;42.04;101726.13;10497663;28;20049;-77
2023/06/25 11:04:25;;;;;;;7.70;2.80;;;;;;;29.96;42.26;101717.50;10494658;28;20244;-77
2023/06/25 11:09:28;;;;;;;5.43;2.92;;;;;;;29.97;43.14;101712.03;10459640;28;20450;-78
2023/06/25 11:14:29;;;;;;;3.97;2.08;;;;;;;30.36;42.77;101710.06;10481273;28;20533;-78
2023/06/25 11:19:31;;;;;;;7.47;3.67;;;;;;;30.03;43.13;101713.53;10425642;28;20043;-79
2023/06/25 11:24:37;;;;;;;4.82;2.58;;;;;;;30.55;42.67;101709.13;10472669;28;20148;-79
2023/06/25 11:29:40;;;;;;;4.57;2.28;;;;;;;30.56;41.39;101700.94;10455454;28;20036;-78
2023/06/25 11:34:45;;;;;;;5.50;2.58;;;;;;;30.62;41.55;101691.63;10468588;28;20127;-78
2023/06/25 11:39:51;;;;;;;5.35;2.53;;;;;;;30.74;41.34;101698.22;10497198;28;20075;-78
2023/06/25 11:45:04;;;;;;;5.22;2.35;;;;;;;30.73;41.49;101685.66;10459480;28;20053;-78
2023/06/25 11:50:10;;;;;;;5.63;2.38;;;;;;;31.07;41.14;101673.03;10486951;28;20036;-78
2023/06/25 11:55:12;;;;;;;4.03;2.17;;;;;;;31.40;40.71;101670.25;10471769;28;20650;-78
2023/06/25 12:00:14;;;;;;;4.93;2.53;;;;;;;30.44;40.94;101667.34;10483564;28;20825;-77
2023/06/25 12:05:16;;;;;;;3.60;2.15;;;;;;;29.95;41.68;101659.03;10474438;28;20077;-78
2023/06/25 12:10:18;;;;;;;5.57;2.50;;;;;;;30.13;41.90;101651.81;10471964;28;20073;-78
2023/06/25 12:15:19;;;;;;;4.82;2.17;;;;;;;30.13;42.10;101649.13;10490457;28;20076;-78
2023/06/25 12:20:21;;;;;;;4.88;2.60;;;;;;;30.13;43.23;101649.13;10477749;28;20593;-79
2023/06/25 12:25:24;;;;;;;4.90;2.58;;;;;;;30.58;42.43;101647.69;10486533;28;20056;-78
2023/06/25 12:30:26;;;;;;;4.13;2.25;;;;;;;30.63;42.03;101636.66;10509404;28;20071;-79
2023/06/25 12:35:28;;;;;;;5.63;2.72;;;;;;;30.82;42.46;101626.56;10501822;28;20048;-78
2023/06/25 12:40:30;;;;;;;4.80;2.13;;;;;;;31.50;42.39;101622.75;10505368;28;20536;-78
2023/06/25 12:45:32;;;;;;;4.28;2.40;;;;;;;31.65;41.85;101620.16;10512189;28;20490;-79
2023/06/25 12:50:33;;;;;;;3.67;2.08;;;;;;;30.96;41.63;101609.56;10506563;28;20043;-80
2023/06/25 12:55:36;;;;;;;4.88;2.20;;;;;;;30.87;41.25;101614.59;10496392;28;20048;-79
2023/06/25 13:00:38;;;;;;;7.07;3.75;;;;;;;30.68;41.22;101602.13;10506139;28;20042;-78
2023/06/25 13:05:58;;;;;;;6.63;2.90;;;;;;;30.90;41.05;101604.50;10502593;28;20040;-78
2023/06/25 13:10:59;;;;;;;5.88;3.03;;;;;;;30.95;40.61;101594.28;10494515;28;20044;-77
2023/06/25 13:16:01;;;;;;;6.30;3.30;;;;;;;30.98;41.63;101599.56;10491552;28;20135;-77
2023/06/25 13:21:03;;;;;;;4.80;2.17;;;;;;;31.05;41.19;101583.00;10491454;28;20099;-78
2023/06/25 13:26:06;;;;;;;6.13;2.28;;;;;;;31.00;41.70;101585.97;10484198;28;20054;-79
2023/06/25 13:31:08;;;;;;;11.90;6.57;;;;;;;30.65;41.00;101569.84;10482781;28;20071;-80
2023/06/25 13:36:10;;;;;;;10.55;5.10;;;;;;;30.74;41.36;101574.75;10480628;28;20053;-80
2023/06/25 13:41:11;;;;;;;7.00;3.25;;;;;;;31.05;41.45;101572.16;10486906;28;20146;-81
2023/06/25 13:46:13;;;;;;;4.97;2.40;;;;;;;31.05;41.62;101555.94;10492021;28;20068;-81
2023/06/25 13:51:15;;;;;;;37.95;6.28;;;;;;;31.12;41.33;101557.34;10481712;28;20043;-77
2023/06/25 13:56:17;;;;;;;6.80;3.72;;;;;;;31.07;41.14;101548.63;10482716;28;20624;-80
2023/06/25 14:01:19;;;;;;;4.28;2.00;;;;;;;31.15;41.06;101547.25;10477478;28;20609;-81
2023/06/25 14:06:21;;;;;;;4.00;1.98;;;;;;;31.02;41.33;101541.66;10475255;28;20616;-79
2023/06/25 14:11:22;;;;;;;4.47;2.45;;;;;;;31.06;40.60;101541.47;10488073;28;20052;-80
2023/06/25 14:16:30;;;;;;;4.78;2.53;;;;;;;31.44;41.92;101531.13;10504402;28;20127;-79
2023/06/25 14:21:31;;;;;;;5.87;2.77;;;;;;;31.61;41.70;101529.28;10507733;28;20048;-82
2023/06/25 14:26:33;;;;;;;4.53;2.40;;;;;;;31.48;41.62;101530.00;10506490;28;20113;-80
2023/06/25 14:31:34;;;;;;;3.63;2.13;;;;;;;31.40;41.03;101529.56;10522799;28;20093;-80
2023/06/25 14:36:36;;;;;;;6.35;2.50;;;;;;;31.14;41.63;101529.25;10516488;28;20041;-82
2023/06/25 14:41:38;;;;;;;3.90;2.22;;;;;;;30.52;42.31;101526.41;10528791;28;20069;-80
2023/06/25 14:46:39;;;;;;;4.28;2.20;;;;;;;30.34;42.50;101517.47;10490183;28;20068;-81
2023/06/25 14:51:41;;;;;;;4.40;2.22;;;;;;;30.09;43.76;101513.41;10510077;28;20124;-82
2023/06/25 14:56:43;;;;;;;7.30;2.40;;;;;;;29.76;44.20;101508.81;10512310;28;20460;-76
2023/06/25 15:01:44;;;;;;;4.60;2.50;;;;;;;29.88;44.83;101499.22;10522663;28;20046;-76
2023/06/25 15:06:46;;;;;;;4.18;2.17;;;;;;;30.39;43.66;101503.72;10484874;28;20045;-76
2023/06/25 15:11:48;;;;;;;4.28;2.40;;;;;;;30.74;43.01;101498.19;10492450;28;20051;-75
2023/06/25 15:16:50;;;;;;;5.32;2.40;;;;;;;30.63;42.48;101493.41;10497405;28;20074;-75
2023/06/25 15:21:51;;;;;;;4.97;2.13;;;;;;;30.64;42.99;101484.31;10462495;28;20051;-75
2023/06/25 15:26:53;;;;;;;4.38;2.20;;;;;;;30.64;42.97;101487.03;10507548;28;20142;-76
2023/06/25 15:31:56;;;;;;;4.30;2.15;;;;;;;30.71;43.27;101484.88;10518239;28;20749;-75
2023/06/25 15:36:57;;;;;;;4.28;2.00;;;;;;;30.23;43.50;101476.69;10519882;28;20421;-75
2023/06/25 15:42:00;;;;;;;3.63;2.05;;;;;;;30.54;43.47;101464.22;10501994;28;20049;-75
2023/06/25 15:47:03;;;;;;;3.65;1.83;;;;;;;30.71;42.31;101447.88;10475854;28;20140;-75
2023/06/25 15:52:05;;;;;;;3.58;1.90;;;;;;;30.83;42.53;101447.16;10520130;28;20083;-75
2023/06/25 15:57:07;;;;;;;5.05;2.55;;;;;;;30.43;42.45;101443.19;10521370;28;20062;-74
2023/06/25 16:02:09;;;;;;;5.15;2.08;;;;;;;30.61;43.85;101443.97;10518443;28;20136;-75
2023/06/25 16:07:11;;;;;;;5.63;1.95;;;;;;;30.19;43.85;101423.78;10515222;28;20044;-75
2023/06/25 16:12:13;;;;;;;6.38;2.55;;;;;;;30.80;43.19;101423.03;10519076;28;20048;-75
2023/06/25 16:17:15;;;;;;;4.55;2.03;;;;;;;31.06;42.48;101417.94;10510858;28;20110;-75
2023/06/25 16:22:16;;;;;;;5.32;2.42;;;;;;;31.15;42.27;101412.00;10513583;28;20042;-75
2023/06/25 16:27:18;;;;;;;5.88;2.17;;;;;;;30.92;41.73;101412.47;10513239;28;20134;-74
2023/06/25 16:32:19;;;;;;;4.55;2.30;;;;;;;30.08;42.34;101409.03;10520462;28;20052;-75
2023/06/25 16:37:21;;;;;;;5.00;2.13;;;;;;;29.63;43.56;101402.47;10502812;28;20046;-76
2023/06/25 16:42:23;;;;;;;6.18;2.50;;;;;;;29.74;43.46;101410.88;10503192;28;20115;-75
2023/06/25 16:47:25;;;;;;;4.20;2.10;;;;;;;30.67;42.86;101411.19;10521449;28;20067;-75
2023/06/25 16:52:27;;;;;;;4.60;2.25;;;;;;;30.85;42.37;101407.41;10519630;28;20130;-75
2023/06/25 16:57:28;;;;;;;5.63;2.30;;;;;;;31.02;41.85;101398.34;10503261;28;20044;-75
2023/06/25 17:02:30;;;;;;;3.85;2.17;;;;;;;30.97;42.29;101396.81;10520934;28;20571;-75
2023/06/25 17:07:31;;;;;;;4.90;2.40;;;;;;;30.72;43.00;101392.03;10521207;28;20036;-75
2023/06/25 17:12:33;;;;;;;4.60;2.28;;;;;;;30.95;42.90;101393.34;10509853;28;20047;-75
2023/06/25 17:17:35;;;;;;;4.03;2.10;;;;;;;31.28;42.80;101395.88;10513692;28;20127;-76
2023/06/25 17:22:36;;;;;;;4.70;1.98;;;;;;;31.31;42.20;101381.31;10510825;28;20044;-76
2023/06/25 17:27:38;;;;;;;5.05;2.40;;;;;;;31.19;42.64;101380.22;10503359;28;20040;-75
2023/06/25 17:32:40;;;;;;;5.50;2.17;;;;;;;30.95;42.19;101371.72;10526386;28;20101;-75
2023/06/25 17:37:41;;;;;;;4.07;2.22;;;;;;;30.92;43.17;101377.31;10517661;28;20067;-75
2023/06/25 17:42:43;;;;;;;6.18;2.10;;;;;;;30.69;42.83;101371.44;10511326;28;20050;-75
2023/06/25 17:47:45;;;;;;;5.40;2.17;;;;;;;30.22;43.43;101377.69;10487492;28;20068;-75
2023/06/25 17:52:47;;;;;;;4.20;2.08;;;;;;;29.80;43.76;101363.81;10467848;28;20048;-75
2023/06/25 17:57:49;;;;;;;7.03;2.63;;;;;;;29.46;44.56;101373.72;10483071;28;20055;-75
2023/06/25 18:02:50;;;;;;;4.38;2.30;;;;;;;29.17;45.94;101361.72;10481679;28;20086;-75
2023/06/25 18:07:52;;;;;;;3.75;1.85;;;;;;;29.01;46.16;101361.66;10484783;28;20660;-76
2023/06/25 18:12:55;;;;;;;4.10;2.17;;;;;;;28.77;46.98;101363.78;10492087;28;20072;-75
2023/06/25 18:17:56;;;;;;;4.13;2.13;;;;;;;28.63;47.61;101362.66;10484237;28;20066;-75
2023/06/25 18:22:58;;;;;;;5.15;2.35;;;;;;;28.52;48.18;101349.66;10484573;28;20048;-75
2023/06/25 18:27:59;;;;;;;4.60;1.90;;;;;;;28.41;48.46;101353.84;10485080;28;20120;-76
2023/06/25 18:33:02;;;;;;;4.15;2.00;;;;;;;28.29;48.29;101353.47;10485464;28;20064;-76
2023/06/25 18:38:04;;;;;;;3.50;1.88;;;;;;;28.20;48.69;101348.56;10485163;28;20153;-76
2023/06/25 18:43:06;;;;;;;5.32;2.40;;;;;;;28.07;48.94;101350.09;10484813;28;20055;-76
2023/06/25 18:48:08;;;;;;;4.60;2.22;;;;;;;28.00;49.74;101336.91;10467541;28;20121;-76
2023/06/25 18:53:09;;;;;;;5.32;2.53;;;;;;;27.91;49.77;101336.44;10487491;28;20163;-76
2023/06/25 18:58:15;;;;;;;4.97;2.22;;;;;;;27.83;50.32;101334.09;10486671;28;20582;-76
2023/06/25 19:03:17;;;;;;;4.63;2.30;;;;;;;27.72;50.50;101331.06;10491283;28;20651;-77
2023/06/25 19:08:19;;;;;;;4.80;2.30;;;;;;;27.58;51.39;101329.88;10465591;28;20501;-76
2023/06/25 19:13:21;;;;;;;5.85;2.50;;;;;;;27.45;52.10;101321.47;10486692;28;20037;-77
2023/06/25 19:18:23;;;;;;;5.65;2.80;;;;;;;27.29;52.85;101315.91;10488353;28;20068;-77
2023/06/25 19:23:24;;;;;;;7.90;2.33;;;;;;;27.12;53.38;101321.16;10474795;28;20055;-77
2023/06/25 19:28:30;;;;;;;3.75;1.88;;;;;;;26.96;53.86;101316.44;10470758;28;20783;-76
2023/06/25 19:33:32;;;;;;;7.20;2.33;;;;;;;26.80;53.95;101315.38;10488704;28;20745;-76
2023/06/25 19:38:35;;;;;;;5.38;2.42;;;;;;;26.69;54.82;101317.63;10471461;28;20125;-76
2023/06/25 19:43:36;;;;;;;4.43;2.28;;;;;;;26.46;55.63;101308.69;10488786;28;20044;-76
2023/06/25 19:48:41;;;;;;;5.43;2.83;;;;;;;26.16;56.93;101308.97;10470089;28;20437;-76
2023/06/25 19:53:43;;;;;;;5.80;2.22;;;;;;;25.96;58.13;101322.28;10489401;28;20049;-76
2023/06/25 19:58:45;;;;;;;5.53;2.33;;;;;;;25.69;59.11;101314.38;10470640;28;20048;-76
2023/06/25 20:03:47;;;;;;;5.88;2.72;;;;;;;25.47;59.84;101315.16;10453904;28;20036;-75
2023/06/25 20:08:49;;;;;;;5.15;2.40;;;;;;;25.31;60.83;101311.28;10470772;28;20102;-76
2023/06/25 20:13:51;;;;;;;4.88;2.53;;;;;;;25.12;61.61;101309.25;10485678;28;20049;-76
2023/06/25 20:18:52;;;;;;;5.90;2.83;;;;;;;24.97;62.21;101309.81;10488777;28;20131;-76
2023/06/25 20:23:54;;;;;;;8.90;2.88;;;;;;;24.85;62.38;101301.25;10491229;28;20568;-76
2023/06/25 20:28:56;;;;;;;16.25;3.20;;;;;;;24.72;62.33;101301.72;10471072;28;20049;-76
2023/06/25 20:33:58;;;;;;;5.07;2.70;;;;;;;24.59;62.57;101302.16;10470441;28;20183;-76
2023/06/25 20:39:00;;;;;;;5.90;2.92;;;;;;;24.51;63.29;101298.78;10490208;28;20050;-76
2023/06/25 20:44:02;;;;;;;5.05;2.80;;;;;;;24.40;63.51;101292.94;10472433;28;20052;-76
2023/06/25 20:49:06;;;;;;;6.28;2.78;;;;;;;24.27;63.72;101287.09;10472499;28;20044;-77
2023/06/25 20:54:08;;;;;;;5.75;2.70;;;;;;;24.17;63.92;101292.75;10474593;28;20053;-77
2023/06/25 20:59:09;;;;;;;5.55;2.83;;;;;;;24.04;64.53;101291.38;10489222;28;20502;-77
2023/06/25 21:04:11;;;;;;;5.63;2.72;;;;;;;23.93;64.83;101290.81;10471900;28;20399;-77
2023/06/25 21:09:13;;;;;;;6.85;3.10;;;;;;;23.82;65.25;101281.31;10472259;28;20040;-77
2023/06/25 21:14:15;;;;;;;5.88;2.97;;;;;;;23.70;65.54;101289.69;10495112;28;20551;-76
2023/06/25 21:19:17;;;;;;;6.60;2.85;;;;;;;23.54;66.10;101283.03;10486555;28;20048;-77
2023/06/25 21:24:18;;;;;;;6.45;2.70;;;;;;;23.44;66.50;101283.31;10492280;28;20079;-77
2023/06/25 21:29:20;;;;;;;5.20;2.90;;;;;;;23.27;66.95;101267.78;10461141;28;20047;-77
2023/06/25 21:34:22;;;;;;;5.10;2.53;;;;;;;23.21;67.33;101270.63;10489350;28;20048;-76
2023/06/25 21:39:24;;;;;;;6.85;3.17;;;;;;;23.11;67.83;101278.00;10456162;28;20044;-77
2023/06/25 21:44:26;;;;;;;5.50;2.55;;;;;;;23.00;68.11;101272.06;10472780;28;20098;-77
2023/06/25 21:49:28;;;;;;;6.10;2.80;;;;;;;22.89;68.63;101271.47;10489111;28;20041;-77
2023/06/25 21:54:29;;;;;;;5.53;2.58;;;;;;;22.78;68.91;101269.94;10474354;28;20041;-77
2023/06/25 21:59:31;;;;;;;6.43;2.90;;;;;;;22.68;69.42;101273.75;10487906;28;20120;-77
2023/06/25 22:04:32;;;;;;;7.93;2.85;;;;;;;22.58;69.60;101262.47;10489304;28;20044;-77
2023/06/25 22:09:34;;;;;;;6.82;3.22;;;;;;;22.50;69.83;101275.09;10490113;28;20562;-76
2023/06/25 22:14:36;;;;;;;6.55;3.40;;;;;;;22.35;70.13;101267.47;10476647;28;20136;-76
2023/06/25 22:19:37;;;;;;;5.13;2.80;;;;;;;22.26;70.34;101265.88;10497279;28;20470;-76
2023/06/25 22:24:39;;;;;;;7.82;3.13;;;;;;;22.20;70.63;101266.03;10500319;28;20120;-76
2023/06/25 22:29:41;;;;;;;6.38;2.78;;;;;;;22.11;70.68;101261.78;10496512;28;20040;-76
2023/06/25 22:34:44;;;;;;;6.78;3.30;;;;;;;22.07;70.67;101258.31;10497158;28;20048;-76
2023/06/25 22:39:46;;;;;;;6.43;2.80;;;;;;;22.01;70.86;101247.81;10497835;28;20064;-76
2023/06/25 22:44:48;;;;;;;7.63;3.20;;;;;;;21.94;71.27;101253.31;10497657;28;20072;-76
2023/06/25 22:49:49;;;;;;;5.03;2.80;;;;;;;21.85;71.46;101249.06;10498353;28;20132;-76
2023/06/25 22:54:51;;;;;;;5.13;2.50;;;;;;;21.80;71.41;101246.50;10496660;28;20526;-76
2023/06/25 22:59:52;;;;;;;5.65;2.90;;;;;;;21.73;71.49;101238.69;10498010;28;20047;-77
2023/06/25 23:04:55;;;;;;;6.18;3.00;;;;;;;21.64;71.89;101243.28;10479930;28;20124;-77
2023/06/25 23:09:56;;;;;;;5.88;2.83;;;;;;;21.59;72.05;101231.88;10478378;28;20118;-77
2023/06/25 23:14:58;;;;;;;6.53;3.40;;;;;;;21.51;72.52;101224.03;10499305;28;20052;-77
2023/06/25 23:20:01;;;;;;;6.63;3.10;;;;;;;21.44;72.52;101219.72;10498459;28;20076;-76
2023/06/25 23:25:05;;;;;;;8.00;3.67;;;;;;;21.43;72.78;101212.63;10481947;28;20646;-77